createdAt,value
2018-06-24T00:00:27.230Z,64.18
2018-06-24T00:01:27.233Z,64.43
2018-06-24T00:02:27.219Z,64.43
2018-06-24T00:03:27.222Z,64.34
2018-06-24T00:04:27.264Z,64.15
2018-06-24T00:05:27.248Z,64.24
2018-06-24T00:06:27.265Z,64.05
2018-06-24T00:07:27.273Z,64.53
2018-06-24T00:08:27.562Z,64.34
2018-06-24T00:09:27.244Z,64.24
2018-06-24T00:10:27.263Z,64.34
2018-06-24T00:11:27.253Z,64.34
2018-06-24T00:12:27.258Z,64.53
2018-06-24T00:13:27.284Z,64.34
2018-06-24T00:14:27.278Z,64.34
2018-06-24T00:15:27.282Z,64.24
2018-06-24T00:16:27.281Z,64.28
2018-06-24T00:17:27.264Z,64.24
2018-06-24T00:18:27.269Z,64.24
2018-06-24T00:19:27.275Z,64.34
2018-06-24T00:20:27.292Z,64.53
2018-06-24T00:21:27.288Z,64.34
2018-06-24T00:22:27.281Z,64.34
2018-06-24T00:23:27.257Z,64.43
2018-06-24T00:24:37.276Z,64.66
2018-06-24T00:25:27.300Z,64.24
2018-06-24T00:26:27.331Z,64.34
2018-06-24T00:27:27.362Z,64.53
2018-06-24T00:28:27.309Z,64.53
2018-06-24T00:29:27.349Z,64.53
2018-06-24T00:30:27.270Z,64.24
2018-06-24T00:31:27.287Z,64.53
2018-06-24T00:32:27.400Z,64.66
2018-06-24T00:33:27.298Z,64.43
2018-06-24T00:34:27.355Z,64.43
2018-06-24T00:35:27.312Z,64.34
2018-06-24T00:36:27.293Z,64.43
2018-06-24T00:37:27.317Z,64.34
2018-06-24T00:38:27.706Z,64.37
2018-06-24T00:39:27.293Z,64.15
2018-06-24T00:40:27.333Z,64.34
2018-06-24T00:41:27.375Z,64.34
2018-06-24T00:42:27.295Z,64.34
2018-06-24T00:43:27.315Z,64.05
2018-06-24T00:44:27.325Z,64.43
2018-06-24T00:45:27.325Z,64.34
2018-06-24T00:46:27.328Z,64.53
2018-06-24T00:47:27.308Z,64.43
2018-06-24T00:48:27.322Z,64.34
2018-06-24T00:49:27.321Z,64.53
2018-06-24T00:50:27.331Z,64.53
2018-06-24T00:51:27.340Z,64.24
2018-06-24T00:52:27.315Z,64.53
2018-06-24T00:53:27.425Z,64.53
2018-06-24T00:54:27.388Z,64.34
2018-06-24T00:55:27.450Z,64.43
2018-06-24T00:56:27.325Z,64.43
2018-06-24T00:57:27.382Z,64.15
2018-06-24T00:58:27.349Z,64.05
2018-06-24T00:59:27.383Z,64.24
2018-06-24T01:00:27.415Z,64.24
2018-06-24T01:01:27.347Z,64.43
2018-06-24T01:02:27.321Z,64.53
2018-06-24T01:03:27.383Z,64.43
2018-06-24T01:04:27.394Z,64.34
2018-06-24T01:05:27.383Z,64.24
2018-06-24T01:06:27.362Z,64.15
2018-06-24T01:07:27.367Z,64.53
2018-06-24T01:08:27.662Z,64.15
2018-06-24T01:09:27.400Z,64.53
2018-06-24T01:10:27.364Z,64.43
2018-06-24T01:11:27.367Z,64.15
2018-06-24T01:12:27.410Z,64.53
2018-06-24T01:13:27.344Z,64.43
2018-06-24T01:14:27.385Z,64.43
2018-06-24T01:15:27.393Z,64.43
2018-06-24T01:16:27.374Z,64.15
2018-06-24T01:17:27.347Z,64.15
2018-06-24T01:18:27.379Z,64.05
2018-06-24T01:19:27.367Z,64.43
2018-06-24T01:20:27.365Z,64.34
2018-06-24T01:21:27.348Z,64.53
2018-06-24T01:22:27.405Z,64.34
2018-06-24T01:23:27.363Z,64.34
2018-06-24T01:24:27.392Z,64.34
2018-06-24T01:25:27.369Z,64.15
2018-06-24T01:26:27.377Z,64.24
2018-06-24T01:27:27.364Z,64.24
2018-06-24T01:28:27.401Z,64.34
2018-06-24T01:29:27.414Z,64.24
2018-06-24T01:30:27.432Z,64.34
2018-06-24T01:31:27.390Z,64.34
2018-06-24T01:32:27.417Z,64.34
2018-06-24T01:33:27.417Z,64.53
2018-06-24T01:34:27.432Z,64.24
2018-06-24T01:35:27.470Z,64.34
2018-06-24T01:36:27.427Z,64.63
2018-06-24T01:37:27.406Z,64.34
2018-06-24T01:38:27.390Z,64.05
2018-06-24T01:39:27.411Z,64.43
2018-06-24T01:40:27.468Z,64.63
2018-06-24T01:41:27.426Z,64.43
2018-06-24T01:42:27.456Z,64.43
2018-06-24T01:43:27.441Z,64.53
2018-06-24T01:44:27.394Z,64.43
2018-06-24T01:45:27.402Z,64.72
2018-06-24T01:46:27.440Z,64.43
2018-06-24T01:47:27.540Z,64.43
2018-06-24T01:48:27.448Z,64.43
2018-06-24T01:49:27.409Z,64.63
2018-06-24T01:50:27.433Z,64.63
2018-06-24T01:51:27.412Z,64.72
2018-06-24T01:52:27.508Z,64.72
2018-06-24T01:53:27.437Z,64.43
2018-06-24T01:54:27.497Z,64.92
2018-06-24T01:55:27.444Z,65.11
2018-06-24T01:56:27.445Z,64.92
2018-06-24T01:57:27.438Z,64.82
2018-06-24T01:58:27.471Z,64.72
2018-06-24T01:59:27.457Z,64.92
2018-06-24T02:00:27.508Z,64.82
2018-06-24T02:01:27.455Z,64.53
2018-06-24T02:02:27.464Z,64.82
2018-06-24T02:03:27.491Z,64.82
2018-06-24T02:04:27.526Z,64.92
2018-06-24T02:05:27.433Z,64.53
2018-06-24T02:06:27.446Z,64.43
2018-06-24T02:07:27.454Z,64.63
2018-06-24T02:08:27.448Z,64.72
2018-06-24T02:09:27.481Z,64.72
2018-06-24T02:10:27.442Z,65.01
2018-06-24T02:11:27.473Z,65.2
2018-06-24T02:12:27.463Z,64.53
2018-06-24T02:13:27.492Z,65.11
2018-06-24T02:18:44.233Z,65.11
2018-06-24T02:18:55.677Z,65.01
2018-06-24T02:19:55.708Z,65.11
2018-06-24T02:20:55.666Z,64.82
2018-06-24T02:21:55.646Z,64.72
2018-06-24T02:22:55.655Z,64.92
2018-06-24T02:23:55.666Z,64.72
2018-06-24T02:24:55.637Z,64.63
2018-06-24T02:25:55.645Z,64.92
2018-06-24T02:26:55.675Z,64.72
2018-06-24T02:27:55.661Z,65.01
2018-06-24T02:28:56.046Z,64.63
2018-06-24T02:29:55.695Z,64.72
2018-06-24T02:30:55.711Z,64.92
2018-06-24T02:31:55.683Z,64.82
2018-06-24T02:32:55.692Z,65.01
2018-06-24T02:33:55.674Z,64.92
2018-06-24T02:34:55.677Z,64.92
2018-06-24T02:35:55.686Z,64.72
2018-06-24T02:36:55.666Z,64.92
2018-06-24T02:37:55.728Z,64.92
2018-06-24T02:38:55.676Z,64.72
2018-06-24T02:39:55.686Z,64.72
2018-06-24T02:40:55.699Z,64.92
2018-06-24T02:41:55.733Z,64.92
2018-06-24T02:42:55.684Z,64.92
2018-06-24T02:43:55.734Z,64.92
2018-06-24T02:44:55.722Z,64.82
2018-06-24T02:45:55.703Z,64.92
2018-06-24T02:46:55.687Z,65.11
2018-06-24T02:47:55.697Z,64.92
2018-06-24T02:48:55.775Z,64.92
2018-06-24T02:49:55.731Z,65.01
2018-06-24T02:50:55.744Z,64.92
2018-06-24T02:51:55.692Z,64.72
2018-06-24T02:52:55.750Z,64.92
2018-06-24T02:53:55.734Z,64.82
2018-06-24T02:54:55.739Z,64.92
2018-06-24T02:55:55.720Z,64.92
2018-06-24T02:56:55.689Z,64.72
2018-06-24T02:57:55.720Z,64.92
2018-06-24T02:58:55.748Z,64.82
2018-06-24T02:59:55.746Z,64.92
2018-06-24T03:00:55.781Z,64.82
2018-06-24T03:01:55.753Z,65.2
2018-06-24T03:02:55.783Z,64.72
2018-06-24T03:03:55.769Z,64.92
2018-06-24T03:04:55.729Z,65.01
2018-06-24T03:05:55.749Z,64.72
2018-06-24T03:06:55.758Z,65.11
2018-06-24T03:07:55.751Z,64.92
2018-06-24T03:08:55.719Z,65.01
2018-06-24T03:09:55.752Z,65.11
2018-06-24T03:10:55.785Z,64.72
2018-06-24T03:11:55.742Z,65.2
2018-06-24T03:12:55.778Z,64.82
2018-06-24T03:13:55.730Z,64.92
2018-06-24T03:14:55.743Z,65.01
2018-06-24T03:15:55.765Z,64.82
2018-06-24T03:16:55.756Z,64.82
2018-06-24T03:17:55.791Z,64.72
2018-06-24T03:18:55.771Z,64.92
2018-06-24T03:19:55.851Z,64.82
2018-06-24T03:20:55.798Z,64.92
2018-06-24T03:21:55.758Z,64.92
2018-06-24T03:22:55.786Z,64.82
2018-06-24T03:23:55.827Z,64.72
2018-06-24T03:24:55.748Z,64.72
2018-06-24T03:25:55.781Z,65.01
2018-06-24T03:26:55.785Z,64.92
2018-06-24T03:27:55.791Z,65.4
2018-06-24T03:28:55.781Z,64.92
2018-06-24T03:29:55.812Z,65.11
2018-06-24T03:30:55.768Z,65.11
2018-06-24T03:31:55.789Z,65.2
2018-06-24T03:32:55.783Z,65.01
2018-06-24T03:33:55.815Z,65.2
2018-06-24T03:34:55.797Z,65.11
2018-06-24T03:35:55.802Z,65.01
2018-06-24T03:36:55.837Z,65.2
2018-06-24T03:37:55.867Z,64.92
2018-06-24T03:40:14.589Z,65.4
2018-06-24T03:41:14.268Z,65.4
2018-06-24T03:42:14.305Z,65.01
2018-06-24T03:43:14.256Z,65.3
2018-06-24T03:44:14.256Z,65.4
2018-06-24T03:45:14.236Z,65.4
2018-06-24T03:46:14.240Z,65.11
2018-06-24T03:47:14.243Z,65.4
2018-06-24T03:48:14.362Z,65.4
2018-06-24T03:49:14.239Z,65.4
2018-06-24T03:50:14.239Z,65.4
2018-06-24T03:51:14.270Z,65.4
2018-06-24T03:52:14.270Z,65.4
2018-06-24T03:54:33.056Z,65.4
2018-06-24T03:55:33.066Z,65.4
2018-06-24T03:56:33.073Z,65.3
2018-06-24T03:57:33.082Z,65.4
2018-06-24T03:58:33.085Z,65.5
2018-06-24T03:59:33.052Z,65.11
2018-06-24T04:00:33.091Z,65.4
2018-06-24T04:01:33.089Z,65.3
2018-06-24T04:02:33.056Z,65.3
2018-06-24T04:03:33.071Z,65.3
2018-06-24T04:04:33.070Z,65.5
2018-06-24T04:05:33.064Z,65.2
2018-06-24T04:06:33.060Z,65.11
2018-06-24T04:07:33.093Z,65.2
2018-06-24T04:08:33.055Z,65.3
2018-06-24T04:09:34.381Z,65.3
2018-06-24T04:10:33.084Z,65.5
2018-06-24T04:11:33.074Z,65.2
2018-06-24T04:12:33.075Z,65.3
2018-06-24T04:13:33.073Z,65.3
2018-06-24T04:14:33.081Z,65.3
2018-06-24T04:15:33.088Z,65.01
2018-06-24T04:16:33.078Z,65.2
2018-06-24T04:17:33.111Z,64.92
2018-06-24T04:18:33.136Z,65.01
2018-06-24T04:19:33.113Z,65.01
2018-06-24T04:20:33.071Z,65.11
2018-06-24T04:21:33.080Z,65.4
2018-06-24T04:22:33.142Z,65.2
2018-06-24T04:23:33.095Z,65.11
2018-06-24T04:24:33.088Z,65.5
2018-06-24T04:25:33.091Z,65.11
2018-06-24T04:26:33.117Z,65.3
2018-06-24T04:27:33.148Z,65.11
2018-06-24T04:28:33.136Z,65.3
2018-06-24T04:29:33.137Z,65.01
2018-06-24T04:30:33.118Z,64.92
2018-06-24T04:31:33.090Z,65.11
2018-06-24T04:32:33.134Z,64.82
2018-06-24T04:33:33.108Z,65.4
2018-06-24T04:34:33.142Z,65.11
2018-06-24T04:35:33.157Z,65.11
2018-06-24T04:36:33.138Z,65.01
2018-06-24T04:37:33.135Z,65.2
2018-06-24T04:38:33.123Z,65.3
2018-06-24T04:39:33.140Z,65.01
2018-06-24T04:40:33.165Z,65.3
2018-06-24T04:41:33.136Z,65.11
2018-06-24T04:42:33.141Z,65.11
2018-06-24T04:43:33.134Z,65.4
2018-06-24T04:44:33.152Z,65.2
2018-06-24T04:45:33.138Z,65.3
2018-06-24T04:46:33.145Z,65.3
2018-06-24T04:47:33.152Z,65.3
2018-06-24T04:48:33.237Z,65.4
2018-06-24T04:49:33.140Z,65.5
2018-06-24T04:50:33.155Z,65.5
2018-06-24T04:51:33.250Z,65.3
2018-06-24T04:52:33.139Z,65.2
2018-06-24T04:53:33.161Z,65.5
2018-06-24T04:54:33.168Z,65.2
2018-06-24T04:55:33.179Z,65.11
2018-06-24T04:56:33.130Z,65.2
2018-06-24T04:57:33.163Z,65.4
2018-06-24T04:58:33.144Z,65.4
2018-06-24T04:59:33.170Z,65.4
2018-06-24T05:00:33.158Z,65.2
2018-06-24T05:01:33.172Z,65.3
2018-06-24T05:02:33.170Z,65.4
2018-06-24T05:03:33.203Z,65.4
2018-06-24T05:04:33.181Z,65.4
2018-06-24T05:05:33.165Z,65.4
2018-06-24T05:06:33.237Z,65.4
2018-06-24T05:07:33.200Z,65.4
2018-06-24T05:08:33.158Z,65.4
2018-06-24T05:09:33.174Z,65.4
2018-06-24T05:10:33.171Z,65.3
2018-06-24T05:11:33.180Z,65.4
2018-06-24T05:12:33.191Z,65.2
2018-06-24T05:13:33.196Z,65.27
2018-06-24T05:14:33.224Z,65.4
2018-06-24T05:15:33.183Z,65.4
2018-06-24T05:16:33.186Z,65.4
2018-06-24T05:17:33.193Z,65.3
2018-06-24T05:18:33.226Z,65.3
2018-06-24T05:19:33.213Z,65.59
2018-06-24T05:20:33.215Z,65.5
2018-06-24T05:21:33.228Z,65.3
2018-06-24T05:22:33.179Z,65.3
2018-06-24T05:23:33.254Z,65.3
2018-06-24T05:24:33.194Z,65.4
2018-06-24T05:25:33.324Z,65.4
2018-06-24T05:26:33.224Z,65.3
2018-06-24T05:27:33.295Z,65.2
2018-06-24T05:28:33.186Z,65.3
2018-06-24T05:29:33.215Z,65.4
2018-06-24T05:30:33.230Z,65.3
2018-06-24T05:31:33.229Z,65.3
2018-06-24T05:32:33.237Z,65.2
2018-06-24T05:33:33.221Z,65.4
2018-06-24T05:34:33.226Z,65.3
2018-06-24T05:35:33.200Z,65.3
2018-06-24T05:36:33.273Z,65.4
2018-06-24T05:37:33.245Z,65.2
2018-06-24T05:38:33.256Z,65.4
2018-06-24T05:39:33.210Z,65.69
2018-06-24T05:40:33.218Z,65.4
2018-06-24T05:41:33.221Z,65.3
2018-06-24T05:42:33.228Z,65.4
2018-06-24T05:43:33.267Z,65.3
2018-06-24T05:44:33.251Z,65.3
2018-06-24T05:45:33.267Z,65.3
2018-06-24T05:46:33.255Z,65.2
2018-06-24T05:47:33.314Z,65.4
2018-06-24T05:48:33.272Z,65.4
2018-06-24T05:49:33.277Z,65.4
2018-06-24T05:50:33.289Z,65.3
2018-06-24T05:51:33.238Z,65.3
2018-06-24T05:52:33.249Z,65.3
2018-06-24T05:53:33.274Z,65.4
2018-06-24T05:54:33.261Z,65.4
2018-06-24T05:55:33.238Z,65.5
2018-06-24T05:56:33.274Z,65.3
2018-06-24T05:57:33.265Z,65.3
2018-06-24T05:58:33.347Z,65.3
2018-06-24T05:59:33.332Z,65.4
2018-06-24T06:00:33.293Z,65.4
2018-06-24T06:01:33.298Z,65.4
2018-06-24T06:02:33.312Z,65.3
2018-06-24T06:03:33.290Z,65.4
2018-06-24T06:04:33.324Z,65.4
2018-06-24T06:05:33.279Z,65.3
2018-06-24T06:06:33.306Z,65.5
2018-06-24T06:07:33.305Z,65.3
2018-06-24T06:08:33.273Z,65.4
2018-06-24T06:09:33.305Z,65.3
2018-06-24T06:10:33.356Z,65.3
2018-06-24T06:11:33.288Z,65.4
2018-06-24T06:12:33.302Z,65.4
2018-06-24T06:13:33.308Z,65.4
2018-06-24T06:14:33.317Z,65.3
2018-06-24T06:15:33.317Z,65.3
2018-06-24T06:16:33.345Z,65.3
2018-06-24T06:17:33.365Z,65.4
2018-06-24T06:18:33.335Z,65.4
2018-06-24T06:19:33.290Z,65.5
2018-06-24T06:20:33.345Z,65.4
2018-06-24T06:25:50.777Z,65.4
2018-06-24T06:26:02.178Z,65.3
2018-06-24T06:27:02.170Z,65.3
2018-06-24T06:28:02.166Z,65.3
2018-06-24T06:29:02.207Z,65.2
2018-06-24T06:30:02.189Z,65.2
2018-06-24T06:31:02.183Z,65.4
2018-06-24T06:32:02.192Z,65.4
2018-06-24T06:33:02.196Z,65.3
2018-06-24T06:34:02.182Z,65.3
2018-06-24T06:35:02.215Z,65.5
2018-06-24T06:36:02.193Z,65.5
2018-06-24T06:37:02.186Z,65.2
2018-06-24T06:38:02.210Z,65.3
2018-06-24T06:39:02.192Z,65.5
2018-06-24T06:40:02.226Z,65.4
2018-06-24T06:41:02.225Z,65.3
2018-06-24T06:42:02.241Z,65.4
2018-06-24T06:43:02.170Z,65.3
2018-06-24T06:44:02.255Z,65.3
2018-06-24T06:45:02.344Z,65.4
2018-06-24T06:46:02.207Z,65.5
2018-06-24T06:47:02.191Z,65.3
2018-06-24T06:48:02.249Z,65.2
2018-06-24T06:49:02.212Z,65.3
2018-06-24T06:50:02.212Z,65.4
2018-06-24T06:51:02.282Z,65.11
2018-06-24T06:52:02.283Z,65.3
2018-06-24T06:53:02.208Z,65.2
2018-06-24T06:54:02.325Z,64.92
2018-06-24T06:55:02.201Z,65.11
2018-06-24T06:56:02.225Z,65.11
2018-06-24T06:57:02.227Z,65.11
2018-06-24T06:58:02.311Z,65.11
2018-06-24T06:59:02.250Z,65.01
2018-06-24T07:00:02.279Z,65.3
2018-06-24T07:01:02.256Z,65.11
2018-06-24T07:02:02.289Z,65.3
2018-06-24T07:03:02.216Z,65.3
2018-06-24T07:04:02.228Z,65.2
2018-06-24T07:05:02.281Z,65.4
2018-06-24T07:06:02.263Z,65.4
2018-06-24T07:07:02.240Z,65.3
2018-06-24T07:08:02.227Z,65.3
2018-06-24T07:09:02.227Z,65.01
2018-06-24T07:10:02.256Z,64.92
2018-06-24T07:11:02.251Z,65.01
2018-06-24T07:12:02.270Z,64.92
2018-06-24T07:13:02.428Z,64.72
2018-06-24T07:14:02.260Z,64.72
2018-06-24T07:15:02.266Z,64.82
2018-06-24T07:16:02.250Z,65.2
2018-06-24T07:17:02.225Z,65.01
2018-06-24T07:22:18.932Z,64.72
2018-06-24T07:22:30.324Z,64.53
2018-06-24T07:23:30.376Z,65.11
2018-06-24T07:24:30.331Z,64.92
2018-06-24T07:25:30.419Z,64.92
2018-06-24T07:26:30.318Z,64.43
2018-06-24T07:27:30.325Z,64.92
2018-06-24T07:28:30.361Z,64.82
2018-06-24T07:29:30.340Z,64.72
2018-06-24T07:30:30.396Z,65.11
2018-06-24T07:31:30.381Z,64.92
2018-06-24T07:32:30.362Z,64.63
2018-06-24T07:33:30.441Z,64.43
2018-06-24T07:34:30.399Z,64.34
2018-06-24T07:35:30.379Z,64.34
2018-06-24T07:36:30.341Z,64.15
2018-06-24T07:37:30.365Z,64.05
2018-06-24T07:38:30.386Z,64.15
2018-06-24T07:39:30.357Z,64.24
2018-06-24T07:40:30.362Z,64.34
2018-06-24T07:41:30.375Z,64.43
2018-06-24T07:42:30.408Z,63.85
2018-06-24T07:43:30.383Z,63.76
2018-06-24T07:44:30.384Z,63.85
2018-06-24T07:45:30.373Z,64.05
2018-06-24T07:46:30.349Z,64.24
2018-06-24T07:47:30.437Z,64.05
2018-06-24T07:48:30.416Z,63.85
2018-06-24T07:49:30.475Z,63.57
2018-06-24T07:50:30.359Z,64.05
2018-06-24T07:51:30.385Z,64.05
2018-06-24T07:56:47.360Z,63.85
2018-06-24T07:56:58.832Z,64.15
2018-06-24T07:57:58.781Z,64.24
2018-06-24T07:58:58.787Z,64.15
2018-06-24T07:59:58.816Z,64.05
2018-06-24T08:00:58.826Z,64.05
2018-06-24T08:01:58.865Z,64.05
2018-06-24T08:02:58.841Z,64.05
2018-06-24T08:03:58.809Z,63.95
2018-06-24T08:04:58.814Z,63.67
2018-06-24T08:05:58.809Z,63.67
2018-06-24T08:06:58.819Z,63.76
2018-06-24T08:07:58.850Z,63.67
2018-06-24T08:08:58.840Z,63.76
2018-06-24T08:09:58.825Z,63.95
2018-06-24T08:10:58.819Z,63.95
2018-06-24T08:11:58.832Z,63.67
2018-06-24T08:12:58.810Z,63.47
2018-06-24T08:13:58.888Z,63.37
2018-06-24T08:14:58.860Z,63.57
2018-06-24T08:15:58.863Z,63.47
2018-06-24T08:16:58.864Z,63.47
2018-06-24T08:17:58.842Z,63.67
2018-06-24T08:18:58.843Z,63.95
2018-06-24T08:19:58.933Z,64.05
2018-06-24T08:20:58.861Z,64.05
2018-06-24T08:21:58.872Z,63.67
2018-06-24T08:22:58.900Z,63.47
2018-06-24T08:23:58.860Z,63.37
2018-06-24T08:24:58.835Z,63.67
2018-06-24T08:25:58.850Z,63.57
2018-06-24T08:26:58.845Z,63.37
2018-06-24T08:27:58.900Z,63.28
2018-06-24T08:32:27.559Z,63.47
2018-06-24T08:33:27.885Z,63.67
2018-06-24T08:34:27.567Z,63.57
2018-06-24T08:35:27.549Z,63.57
2018-06-24T08:36:27.599Z,63.57
2018-06-24T08:37:27.529Z,63.95
2018-06-24T08:38:27.535Z,63.47
2018-06-24T08:39:27.518Z,63.47
2018-06-24T08:40:27.532Z,64.05
2018-06-24T08:41:27.528Z,63.47
2018-06-24T08:42:27.536Z,63.47
2018-06-24T08:43:27.549Z,63.76
2018-06-24T08:44:27.533Z,63.85
2018-06-24T08:45:27.611Z,63.47
2018-06-24T08:46:27.551Z,63.47
2018-06-24T08:47:27.570Z,63.57
2018-06-24T08:48:27.538Z,63.47
2018-06-24T08:49:27.541Z,63.47
2018-06-24T08:50:27.574Z,63.67
2018-06-24T08:51:27.574Z,63.57
2018-06-24T08:52:27.589Z,63.67
2018-06-24T08:53:27.558Z,63.76
2018-06-24T08:54:27.673Z,63.47
2018-06-24T08:55:27.614Z,63.47
2018-06-24T08:56:27.613Z,63.76
2018-06-24T08:57:27.626Z,63.76
2018-06-24T08:58:27.623Z,63.95
2018-06-24T08:59:27.623Z,63.67
2018-06-24T09:00:27.586Z,63.67
2018-06-24T09:01:27.595Z,63.67
2018-06-24T09:02:27.574Z,63.67
2018-06-24T09:03:27.579Z,63.67
2018-06-24T09:04:27.615Z,63.67
2018-06-24T09:05:27.592Z,63.47
2018-06-24T09:06:27.667Z,63.37
2018-06-24T09:07:27.724Z,63.47
2018-06-24T09:08:27.608Z,63.37
2018-06-24T09:11:34.731Z,63.47
2018-06-24T09:11:46.393Z,63.76
2018-06-24T09:16:14.945Z,62.41
2018-06-24T09:17:14.972Z,62.99
2018-06-24T09:18:14.951Z,63.09
2018-06-24T09:19:14.931Z,63.28
2018-06-24T09:20:14.962Z,63.18
2018-06-24T09:21:15.039Z,63.57
2018-06-24T09:22:15.000Z,63.76
2018-06-24T09:23:14.932Z,63.76
2018-06-24T09:24:14.928Z,63.37
2018-06-24T09:25:14.950Z,63.57
2018-06-24T09:26:14.955Z,62.99
2018-06-24T09:27:14.933Z,62.99
2018-06-24T09:28:14.934Z,63.09
2018-06-24T09:29:14.978Z,63.28
2018-06-24T09:30:14.982Z,63.09
2018-06-24T09:31:14.954Z,63.76
2018-06-24T09:32:14.961Z,63.57
2018-06-24T09:33:14.971Z,63.09
2018-06-24T09:34:14.954Z,63.09
2018-06-24T09:35:15.070Z,63.28
2018-06-24T09:36:14.990Z,62.99
2018-06-24T09:37:14.954Z,63.67
2018-06-24T09:38:15.035Z,63.57
2018-06-24T09:39:14.981Z,63.57
2018-06-24T09:40:14.991Z,63.37
2018-06-24T09:41:15.000Z,62.51
2018-06-24T09:42:15.027Z,63.09
2018-06-24T09:43:15.024Z,62.7
2018-06-24T09:44:14.972Z,63.09
2018-06-24T09:45:15.005Z,62.89
2018-06-24T09:46:15.147Z,62.99
2018-06-24T09:47:14.964Z,63.47
2018-06-24T09:48:15.048Z,63.28
2018-06-24T09:49:15.004Z,63.57
2018-06-24T09:50:14.999Z,63.37
2018-06-24T09:51:14.988Z,63.76
2018-06-24T09:52:14.994Z,63.37
2018-06-24T09:53:15.136Z,63.47
2018-06-24T09:54:15.013Z,63.57
2018-06-24T09:55:15.024Z,63.67
2018-06-24T09:56:15.016Z,63.47
2018-06-24T09:57:14.992Z,63.57
2018-06-24T09:58:15.058Z,63.37
2018-06-24T09:59:15.062Z,63.47
2018-06-24T10:00:15.023Z,63.57
2018-06-24T10:01:15.101Z,63.09
2018-06-24T10:02:15.065Z,62.51
2018-06-24T10:03:15.072Z,62.31
2018-06-24T10:04:15.020Z,62.51
2018-06-24T10:05:15.006Z,62.89
2018-06-24T10:06:15.096Z,62.89
2018-06-24T10:07:15.025Z,63.37
2018-06-24T10:08:15.056Z,63.67
2018-06-24T10:09:15.035Z,63.67
2018-06-24T10:10:15.017Z,63.57
2018-06-24T10:11:15.031Z,63.47
2018-06-24T10:12:15.074Z,62.99
2018-06-24T10:13:15.040Z,63.09
2018-06-24T10:14:15.109Z,63.28
2018-06-24T10:15:15.050Z,62.99
2018-06-24T10:16:15.050Z,62.99
2018-06-24T10:17:15.059Z,63.67
2018-06-24T10:18:15.093Z,62.89
2018-06-24T10:19:15.016Z,63.28
2018-06-24T10:20:15.056Z,62.89
2018-06-24T10:21:15.213Z,62.89
2018-06-24T10:22:15.086Z,63.67
2018-06-24T10:23:15.131Z,63.67
2018-06-24T10:24:15.080Z,63.67
2018-06-24T10:25:15.118Z,63.57
2018-06-24T10:26:15.098Z,63.47
2018-06-24T10:27:15.438Z,63.67
2018-06-24T10:28:15.020Z,62.22
2018-06-24T10:29:15.062Z,61.54
2018-06-24T10:30:15.097Z,62.7
2018-06-24T10:31:15.116Z,62.41
2018-06-24T10:32:15.100Z,62.51
2018-06-24T10:33:15.107Z,62.02
2018-06-24T10:34:15.040Z,61.16
2018-06-24T10:35:15.089Z,62.02
2018-06-24T10:36:15.107Z,61.93
2018-06-24T10:37:15.137Z,62.31
2018-06-24T10:38:15.164Z,63.18
2018-06-24T10:39:15.083Z,61.93
2018-06-24T10:40:15.109Z,62.02
2018-06-24T10:41:15.183Z,62.51
2018-06-24T10:42:15.117Z,62.12
2018-06-24T10:43:15.177Z,61.93
2018-06-24T10:44:15.213Z,62.41
2018-06-24T10:45:15.052Z,62.22
2018-06-24T10:46:15.120Z,62.02
2018-06-24T10:47:15.103Z,61.74
2018-06-24T10:48:15.111Z,61.35
2018-06-24T10:49:15.108Z,62.6
2018-06-24T10:50:15.681Z,62.89
2018-06-24T10:51:15.079Z,62.41
2018-06-24T10:52:15.084Z,62.79
2018-06-24T10:58:52.599Z,61.06
2018-06-24T10:59:52.565Z,61.74
2018-06-24T11:00:52.536Z,61.93
2018-06-24T11:01:52.708Z,62.51
2018-06-24T11:02:52.528Z,61.83
2018-06-24T11:03:52.587Z,61.93
2018-06-24T11:04:52.539Z,61.93
2018-06-24T11:05:52.536Z,61.83
2018-06-24T11:06:52.546Z,61.93
2018-06-24T11:07:52.657Z,61.93
2018-06-24T11:08:52.543Z,62.12
2018-06-24T11:09:52.775Z,62.02
2018-06-24T11:10:52.494Z,62.6
2018-06-24T11:11:52.537Z,62.51
2018-06-24T11:12:52.821Z,62.31
2018-06-24T11:13:52.644Z,62.79
2018-06-24T11:14:52.657Z,62.79
2018-06-24T11:15:52.607Z,62.7
2018-06-24T11:16:52.722Z,63.18
2018-06-24T11:17:52.736Z,63.28
2018-06-24T11:18:52.883Z,63.37
2018-06-24T11:19:52.642Z,62.6
2018-06-24T11:20:52.794Z,62.79
2018-06-24T11:21:53.184Z,62.41
2018-06-24T11:22:52.799Z,63.18
2018-06-24T11:23:52.680Z,62.31
2018-06-24T11:24:52.849Z,62.41
2018-06-24T11:25:52.588Z,62.31
2018-06-24T11:26:52.882Z,62.22
2018-06-24T11:27:53.391Z,62.41
2018-06-24T11:28:52.873Z,62.31
2018-06-24T11:29:52.815Z,62.22
2018-06-24T11:30:52.908Z,62.41
2018-06-24T11:31:52.848Z,61.83
2018-06-24T11:32:52.789Z,62.31
2018-06-24T11:33:52.821Z,61.83
2018-06-24T11:34:52.965Z,60.77
2018-06-24T11:35:52.579Z,61.16
2018-06-24T11:36:52.683Z,60.28
2018-06-24T11:37:52.676Z,60.48
2018-06-24T11:38:52.791Z,60.48
2018-06-24T11:39:52.966Z,60.58
2018-06-24T11:40:52.623Z,61.35
2018-06-24T11:41:52.849Z,61.83
2018-06-24T11:42:52.856Z,61.74
2018-06-24T11:43:52.795Z,61.64
2018-06-24T11:44:52.772Z,61.93
2018-06-24T11:45:52.777Z,61.83
2018-06-24T11:46:53.017Z,61.35
2018-06-24T11:47:52.896Z,60.96
2018-06-24T11:48:52.836Z,61.25
2018-06-24T11:49:52.941Z,62.12
2018-06-24T11:50:52.744Z,62.02
2018-06-24T11:51:52.859Z,62.31
2018-06-24T11:52:52.895Z,62.12
2018-06-24T11:54:02.762Z,62.02
2018-06-24T11:54:52.702Z,62.22
2018-06-24T11:55:52.999Z,62.31
2018-06-24T11:56:52.825Z,62.12
2018-06-24T11:57:52.771Z,61.83
2018-06-24T11:58:52.800Z,60.96
2018-06-24T11:59:52.824Z,61.25
2018-06-24T12:00:52.772Z,60.68
2018-06-24T12:01:52.796Z,61.35
2018-06-24T12:02:52.931Z,61.16
2018-06-24T12:03:52.966Z,62.02
2018-06-24T12:04:52.976Z,61.93
2018-06-24T12:05:52.964Z,61.83
2018-06-24T12:06:53.054Z,62.22
2018-06-24T12:07:52.791Z,62.31
2018-06-24T12:08:52.918Z,62.02
2018-06-24T12:09:53.131Z,61.93
2018-06-24T12:10:52.972Z,62.6
2018-06-24T12:11:52.846Z,62.51
2018-06-24T12:12:52.939Z,62.73
2018-06-24T12:13:52.934Z,62.51
2018-06-24T12:14:53.027Z,62.99
2018-06-24T12:15:52.878Z,62.7
2018-06-24T12:16:52.878Z,62.41
2018-06-24T12:17:53.045Z,62.02
2018-06-24T12:18:53.033Z,62.22
2018-06-24T12:19:52.955Z,62.31
2018-06-24T12:20:53.553Z,62.22
2018-06-24T12:21:53.136Z,62.22
2018-06-24T12:22:53.537Z,62.34
2018-06-24T12:23:52.963Z,62.31
2018-06-24T12:24:53.010Z,62.15
2018-06-24T12:25:53.009Z,61.96
2018-06-24T12:26:53.067Z,62.41
2018-06-24T12:27:54.061Z,62.22
2018-06-24T12:28:53.027Z,62.41
2018-06-24T12:29:52.983Z,62.44
2018-06-24T12:30:53.094Z,62.25
2018-06-24T12:31:53.019Z,62.6
2018-06-24T12:32:53.588Z,62.44
2018-06-24T12:33:53.091Z,62.6
2018-06-24T12:34:53.069Z,62.41
2018-06-24T12:35:53.114Z,62.63
2018-06-24T12:36:53.059Z,62.6
2018-06-24T12:37:54.192Z,62.15
2018-06-24T12:38:52.975Z,61.64
2018-06-24T12:39:52.954Z,60.19
2018-06-24T12:40:52.973Z,60.1
2018-06-24T12:41:53.018Z,60.1
2018-06-24T12:42:53.031Z,60.58
2018-06-24T12:43:53.347Z,61.35
2018-06-24T12:44:52.982Z,60.13
2018-06-24T12:45:52.997Z,60.86
2018-06-24T12:46:53.042Z,59.9
2018-06-24T12:47:53.097Z,59.71
2018-06-24T12:48:53.027Z,59.8
2018-06-24T12:49:53.034Z,61.06
2018-06-24T12:50:53.091Z,59.9
2018-06-24T12:51:53.177Z,60.77
2018-06-24T12:52:53.085Z,60
2018-06-24T12:53:53.057Z,59.71
2018-06-24T12:54:53.056Z,59.8
2018-06-24T12:55:53.038Z,59.32
2018-06-24T12:56:53.126Z,60.86
2018-06-24T12:57:53.102Z,60.86
2018-06-24T12:58:53.219Z,60.96
2018-06-24T12:59:53.315Z,60.38
2018-06-24T13:00:53.742Z,60.77
2018-06-24T13:01:53.076Z,60.86
2018-06-24T13:02:53.058Z,61.16
2018-06-24T13:03:52.998Z,60.28
2018-06-24T13:04:53.119Z,59.71
2018-06-24T13:05:53.037Z,59.13
2018-06-24T13:06:53.051Z,60
2018-06-24T13:07:53.374Z,60.1
2018-06-24T13:08:53.139Z,60.68
2018-06-24T13:09:53.169Z,59.9
2018-06-24T13:10:53.120Z,60.19
2018-06-24T13:11:53.093Z,60.96
2018-06-24T13:12:53.084Z,60.77
2018-06-24T13:13:53.116Z,60.96
2018-06-24T13:14:53.101Z,59.42
2018-06-24T13:15:53.194Z,59.42
2018-06-24T13:16:53.299Z,59.42
2018-06-24T13:17:53.282Z,60
2018-06-24T13:18:53.160Z,59.13
2018-06-24T13:19:53.155Z,59.71
2018-06-24T13:20:53.137Z,59.61
2018-06-24T13:22:57.716Z,60.96
2018-06-24T13:23:10.263Z,61.44
2018-06-24T13:24:10.206Z,61.06
2018-06-24T13:25:10.124Z,61.16
2018-06-24T13:26:10.125Z,60.86
2018-06-24T13:27:10.098Z,61.06
2018-06-24T13:28:10.173Z,61.35
2018-06-24T13:29:10.295Z,61.25
2018-06-24T13:30:10.127Z,61.16